Time;durP1;ratioP1;P1;durP2;ratioP2;P2;SDS_P1;SDS_P2;PMS_P1;PMS_P2;Temp;Humidity;BMP_temperature;BMP_pressure;BME280_temperature;BME280_humidity;BME280_pressure;Samples;Min_cycle;Max_cycle;Signal;HPM_P1;HPM_P2
2022/08/16 00:00:43;;;;;;;;;;;26.70;60.30;;;;;;5115536;28;19942;-73
2022/08/16 00:03:09;;;;;;;;;;;26.80;60.40;;;;;;5113936;28;19953;-71
2022/08/16 00:05:35;;;;;;;;;;;26.70;60.30;;;;;;5114078;28;20007;-73
2022/08/16 00:08:01;;;;;;;;;;;26.80;60.40;;;;;;5115059;28;19915;-71
2022/08/16 00:10:27;;;;;;;;;;;26.70;60.30;;;;;;5115195;28;20083;-73
2022/08/16 00:12:53;;;;;;;;;;;26.80;60.50;;;;;;5115052;28;19918;-74
2022/08/16 00:15:24;;;;;;;;;;;26.70;60.50;;;;;;5115044;28;19911;-73
2022/08/16 00:17:49;;;;;;;;;;;26.70;60.90;;;;;;5115331;28;19953;-73
2022/08/16 00:20:15;;;;;;;;;;;26.70;60.90;;;;;;5114921;28;20299;-73
2022/08/16 00:22:42;;;;;;;;;;;26.60;60.70;;;;;;5113870;28;19908;-73
2022/08/16 00:25:09;;;;;;;;;;;26.60;60.90;;;;;;5114898;28;20351;-70
2022/08/16 00:27:34;;;;;;;;;;;26.50;60.90;;;;;;5114606;28;20422;-73
2022/08/16 00:30:00;;;;;;;;;;;26.50;61.00;;;;;;5115277;28;19908;-73
2022/08/16 00:32:26;;;;;;;;;;;26.50;61.10;;;;;;5114740;28;20428;-72
2022/08/16 00:34:51;;;;;;;;;;;26.50;61.30;;;;;;5114948;28;19943;-72
2022/08/16 00:37:17;;;;;;;;;;;26.50;61.30;;;;;;5114169;28;19916;-73
2022/08/16 00:39:43;;;;;;;;;;;26.50;61.40;;;;;;5114692;28;19922;-73
2022/08/16 00:42:09;;;;;;;;;;;26.40;61.40;;;;;;5113171;28;19915;-73
2022/08/16 00:44:35;;;;;;;;;;;26.40;61.50;;;;;;5114418;28;19912;-73
2022/08/16 00:47:04;;;;;;;;;;;26.40;61.50;;;;;;5114623;28;20376;-73
2022/08/16 00:49:31;;;;;;;;;;;26.40;61.70;;;;;;5113399;28;19996;-73
2022/08/16 00:51:57;;;;;;;;;;;26.30;61.70;;;;;;5113296;28;19923;-73
2022/08/16 00:54:26;;;;;;;;;;;26.30;61.70;;;;;;5113078;28;19912;-73
2022/08/16 00:56:53;;;;;;;;;;;26.30;61.70;;;;;;5114563;28;19958;-73
2022/08/16 00:59:19;;;;;;;;;;;26.30;61.90;;;;;;5114501;28;19908;-72
2022/08/16 01:01:45;;;;;;;;;;;26.30;61.90;;;;;;5113828;28;19908;-72
2022/08/16 01:04:12;;;;;;;;;;;26.30;62.00;;;;;;5114367;28;19930;-72
2022/08/16 01:06:38;;;;;;;;;;;26.30;62.00;;;;;;5114701;28;19920;-72
2022/08/16 01:09:05;;;;;;;;;;;26.20;62.00;;;;;;5114401;28;19908;-73
2022/08/16 01:11:31;;;;;;;;;;;26.20;62.10;;;;;;5114404;28;19947;-73
2022/08/16 01:14:01;;;;;;;;;;;26.20;62.10;;;;;;5114426;28;20392;-73
2022/08/16 01:16:27;;;;;;;;;;;26.20;62.30;;;;;;5113485;28;19912;-72
2022/08/16 01:18:58;;;;;;;;;;;26.20;62.20;;;;;;5113367;28;19941;-73
2022/08/16 01:21:33;;;;;;;;;;;26.20;62.40;;;;;;5112878;28;19908;-73
2022/08/16 01:23:59;;;;;;;;;;;26.10;62.30;;;;;;5114258;28;19919;-72
2022/08/16 01:26:27;;;;;;;;;;;26.10;62.30;;;;;;5114232;28;19908;-72
2022/08/16 01:28:53;;;;;;;;;;;26.10;63.10;;;;;;5112902;28;19915;-72
2022/08/16 01:31:19;;;;;;;;;;;26.10;62.50;;;;;;5113969;28;19920;-72
2022/08/16 01:33:45;;;;;;;;;;;26.10;62.50;;;;;;5112868;28;19912;-72
2022/08/16 01:36:10;;;;;;;;;;;26.10;62.50;;;;;;5114258;28;19916;-72
2022/08/16 01:38:41;;;;;;;;;;;26.00;62.50;;;;;;5114137;28;19908;-72
2022/08/16 01:41:11;;;;;;;;;;;26.00;62.50;;;;;;5114092;28;20014;-72
2022/08/16 01:43:38;;;;;;;;;;;26.00;62.60;;;;;;5113861;28;19969;-73
2022/08/16 01:46:04;;;;;;;;;;;26.00;62.50;;;;;;5113939;28;19908;-73
2022/08/16 01:48:31;;;;;;;;;;;26.00;62.70;;;;;;5114066;28;19930;-73
2022/08/16 01:50:57;;;;;;;;;;;26.00;62.80;;;;;;5117714;28;19911;-71
2022/08/16 01:53:23;;;;;;;;;;;26.00;62.80;;;;;;5117710;28;19923;-73
2022/08/16 01:55:49;;;;;;;;;;;26.00;62.70;;;;;;5117915;28;19908;-73
2022/08/16 01:58:16;;;;;;;;;;;26.00;62.80;;;;;;5117712;28;20365;-73
2022/08/16 02:00:41;;;;;;;;;;;26.00;62.80;;;;;;5117517;28;19953;-73
2022/08/16 02:03:07;;;;;;;;;;;26.00;62.90;;;;;;5117659;28;20270;-73
2022/08/16 02:05:33;;;;;;;;;;;26.00;62.80;;;;;;5117099;28;19927;-73
2022/08/16 02:07:58;;;;;;;;;;;26.00;62.90;;;;;;5117297;28;19908;-70
2022/08/16 02:10:24;;;;;;;;;;;26.00;62.90;;;;;;5116118;28;19962;-72
2022/08/16 02:12:50;;;;;;;;;;;26.00;62.90;;;;;;5117568;28;19912;-73
2022/08/16 02:15:16;;;;;;;;;;;26.00;63.00;;;;;;5117277;28;19912;-73
2022/08/16 02:17:42;;;;;;;;;;;26.00;63.00;;;;;;5117185;28;19908;-73
2022/08/16 02:20:08;;;;;;;;;;;26.10;63.10;;;;;;5117018;28;19931;-72
2022/08/16 02:22:34;;;;;;;;;;;26.10;63.20;;;;;;5117367;28;19908;-73
2022/08/16 02:25:00;;;;;;;;;;;26.10;63.40;;;;;;5117189;28;19914;-72
2022/08/16 02:27:26;;;;;;;;;;;26.10;63.40;;;;;;5117467;28;19907;-73
2022/08/16 02:29:51;;;;;;;;;;;26.10;63.50;;;;;;5117047;28;19915;-73
2022/08/16 02:32:17;;;;;;;;;;;26.10;63.50;;;;;;5116965;28;19919;-73
2022/08/16 02:34:43;;;;;;;;;;;26.10;63.60;;;;;;5117060;28;19923;-77
2022/08/16 02:37:09;;;;;;;;;;;26.10;63.60;;;;;;5117210;28;19912;-72
2022/08/16 02:39:35;;;;;;;;;;;26.20;64.30;;;;;;5117010;28;19994;-73
2022/08/16 02:42:01;;;;;;;;;;;26.20;64.00;;;;;;5115666;28;20348;-73
2022/08/16 02:44:26;;;;;;;;;;;26.20;64.00;;;;;;5116936;28;19912;-71
2022/08/16 02:46:52;;;;;;;;;;;26.20;64.10;;;;;;5115616;28;19907;-72
2022/08/16 02:49:18;;;;;;;;;;;26.20;64.30;;;;;;5116654;28;20353;-72
2022/08/16 02:51:43;;;;;;;;;;;26.20;64.30;;;;;;5116796;28;20251;-70
2022/08/16 02:54:10;;;;;;;;;;;26.20;64.30;;;;;;5116613;28;19912;-74
2022/08/16 02:56:35;;;;;;;;;;;26.20;64.30;;;;;;5116867;28;19908;-73
2022/08/16 02:59:01;;;;;;;;;;;26.20;64.30;;;;;;5116759;28;20280;-73
2022/08/16 03:01:29;;;;;;;;;;;26.20;64.30;;;;;;5116061;28;19957;-73
2022/08/16 03:03:55;;;;;;;;;;;26.20;64.40;;;;;;5116191;28;20015;-73
2022/08/16 03:06:21;;;;;;;;;;;26.20;64.40;;;;;;5116315;28;20365;-73
2022/08/16 03:08:47;;;;;;;;;;;26.20;64.80;;;;;;5115149;28;19916;-73
2022/08/16 03:11:13;;;;;;;;;;;26.20;64.70;;;;;;5116126;28;20294;-72
2022/08/16 03:13:39;;;;;;;;;;;26.20;64.60;;;;;;5116082;28;19916;-73
2022/08/16 03:16:05;;;;;;;;;;;26.20;64.80;;;;;;5114682;28;19912;-73
2022/08/16 03:18:30;;;;;;;;;;;26.20;64.80;;;;;;5116024;28;20327;-73
2022/08/16 03:20:58;;;;;;;;;;;26.20;64.80;;;;;;5115852;28;19908;-73
2022/08/16 03:23:24;;;;;;;;;;;26.20;64.90;;;;;;5115914;28;19960;-73
2022/08/16 03:25:49;;;;;;;;;;;26.30;64.90;;;;;;5115742;28;19908;-73
2022/08/16 03:28:15;;;;;;;;;;;26.30;64.90;;;;;;5116278;28;20476;-73
2022/08/16 03:30:41;;;;;;;;;;;26.20;64.80;;;;;;5114742;28;20014;-73
2022/08/16 03:33:06;;;;;;;;;;;26.30;64.90;;;;;;5114311;28;19915;-73
2022/08/16 03:35:33;;;;;;;;;;;26.30;64.80;;;;;;5115887;28;20010;-75
2022/08/16 03:38:00;;;;;;;;;;;26.30;64.80;;;;;;5115918;28;19912;-72
2022/08/16 03:40:26;;;;;;;;;;;26.30;64.80;;;;;;5114299;28;19907;-72
2022/08/16 03:42:52;;;;;;;;;;;26.30;64.70;;;;;;5115588;28;20338;-73
2022/08/16 03:45:18;;;;;;;;;;;26.30;64.60;;;;;;5115398;28;19912;-73
2022/08/16 03:47:45;;;;;;;;;;;26.30;64.60;;;;;;5115292;28;19942;-73
2022/08/16 03:50:10;;;;;;;;;;;26.40;64.70;;;;;;5115730;28;19914;-73
2022/08/16 03:52:36;;;;;;;;;;;26.40;64.60;;;;;;5115565;28;19912;-73
2022/08/16 03:55:03;;;;;;;;;;;26.40;64.50;;;;;;5115084;28;19912;-70
2022/08/16 03:57:29;;;;;;;;;;;26.40;64.50;;;;;;5115339;28;19915;-74
2022/08/16 03:59:55;;;;;;;;;;;26.40;64.40;;;;;;5113766;28;19908;-74
2022/08/16 04:02:21;;;;;;;;;;;26.50;64.40;;;;;;5115204;28;19908;-74
2022/08/16 04:04:47;;;;;;;;;;;26.50;64.40;;;;;;5113877;28;19933;-73
2022/08/16 04:07:13;;;;;;;;;;;26.50;64.30;;;;;;5115206;28;19919;-73
2022/08/16 04:09:39;;;;;;;;;;;26.50;64.10;;;;;;5114953;28;19952;-74
2022/08/16 04:12:05;;;;;;;;;;;26.50;64.20;;;;;;5114027;28;20255;-73
2022/08/16 04:14:30;;;;;;;;;;;26.50;64.10;;;;;;5114752;28;20007;-73
2022/08/16 04:16:56;;;;;;;;;;;26.60;64.10;;;;;;5114919;28;19908;-73
2022/08/16 04:19:26;;;;;;;;;;;26.60;64.10;;;;;;5114707;28;20396;-74
2022/08/16 04:21:52;;;;;;;;;;;26.60;63.90;;;;;;5115281;28;20354;-73
2022/08/16 04:24:17;;;;;;;;;;;26.60;63.80;;;;;;5114216;28;20281;-72
2022/08/16 04:26:43;;;;;;;;;;;26.70;63.80;;;;;;5114401;28;19915;-72
2022/08/16 04:29:09;;;;;;;;;;;26.70;63.70;;;;;;5113230;28;19907;-74
2022/08/16 04:31:34;;;;;;;;;;;26.70;63.70;;;;;;5114595;28;19920;-73
2022/08/16 04:34:00;;;;;;;;;;;26.70;63.60;;;;;;5114875;28;19912;-73
2022/08/16 04:36:26;;;;;;;;;;;26.70;63.60;;;;;;5114235;28;19923;-72
2022/08/16 04:38:52;;;;;;;;;;;26.70;63.60;;;;;;5114407;28;19908;-73
2022/08/16 04:41:17;;;;;;;;;;;26.70;63.70;;;;;;5114000;28;19919;-73
2022/08/16 04:43:43;;;;;;;;;;;26.70;63.70;;;;;;5114319;28;20006;-73
2022/08/16 04:46:08;;;;;;;;;;;26.70;63.70;;;;;;5114080;28;20336;-73
2022/08/16 04:48:34;;;;;;;;;;;26.70;63.70;;;;;;5114130;28;19908;-73
2022/08/16 04:51:00;;;;;;;;;;;26.60;63.70;;;;;;5114464;28;19915;-73
2022/08/16 04:53:27;;;;;;;;;;;26.70;63.70;;;;;;5114404;28;19911;-73
2022/08/16 04:55:53;;;;;;;;;;;26.70;63.70;;;;;;5113828;28;19916;-73
2022/08/16 04:58:19;;;;;;;;;;;26.60;63.70;;;;;;5112788;28;19908;-73
2022/08/16 05:00:45;;;;;;;;;;;26.70;63.70;;;;;;5114268;28;19912;-73
2022/08/16 05:03:11;;;;;;;;;;;26.70;63.80;;;;;;5112705;28;19915;-75
2022/08/16 05:05:38;;;;;;;;;;;26.70;63.80;;;;;;5113426;28;19924;-73
2022/08/16 05:08:04;;;;;;;;;;;26.70;63.80;;;;;;5114122;28;19912;-74
2022/08/16 05:10:30;;;;;;;;;;;26.70;64.10;;;;;;5113688;28;20327;-70
2022/08/16 05:12:56;;;;;;;;;;;26.80;63.80;;;;;;5113442;28;20006;-72
2022/08/16 05:15:22;;;;;;;;;;;26.80;63.90;;;;;;5113824;28;19964;-73
2022/08/16 05:17:48;;;;;;;;;;;26.80;64.30;;;;;;5114298;28;20285;-72
2022/08/16 05:20:14;;;;;;;;;;;26.70;63.80;;;;;;5113815;28;19912;-73
2022/08/16 05:22:41;;;;;;;;;;;26.70;63.80;;;;;;5113866;28;20041;-73
2022/08/16 05:25:08;;;;;;;;;;;26.70;64.00;;;;;;5115951;28;20275;-72
2022/08/16 05:27:33;;;;;;;;;;;26.60;64.40;;;;;;5117197;28;19907;-74
2022/08/16 05:29:59;;;;;;;;;;;26.60;64.40;;;;;;5117368;28;19919;-73
2022/08/16 05:32:24;;;;;;;;;;;26.60;64.10;;;;;;5117502;28;20353;-73
2022/08/16 05:34:50;;;;;;;;;;;26.50;64.50;;;;;;5117853;28;19924;-73
2022/08/16 05:37:15;;;;;;;;;;;26.40;65.20;;;;;;5117979;28;20319;-73
2022/08/16 05:39:41;;;;;;;;;;;26.40;65.70;;;;;;5116834;28;19908;-76
2022/08/16 05:42:07;;;;;;;;;;;26.30;67.40;;;;;;5118310;28;19922;-75
2022/08/16 05:44:32;;;;;;;;;;;26.20;66.50;;;;;;5116177;28;20374;-78
2022/08/16 05:46:59;;;;;;;;;;;26.10;66.40;;;;;;5117350;28;19908;-81
2022/08/16 05:49:25;;;;;;;;;;;26.10;66.80;;;;;;5119868;28;19954;-83
2022/08/16 05:51:51;;;;;;;;;;;26.10;67.30;;;;;;5116087;28;19925;-75
2022/08/16 05:54:17;;;;;;;;;;;26.10;67.00;;;;;;5117225;28;19920;-75
2022/08/16 05:56:44;;;;;;;;;;;26.00;68.20;;;;;;5116891;28;19965;-74
2022/08/16 05:59:10;;;;;;;;;;;26.00;67.10;;;;;;5116192;28;19915;-72
2022/08/16 06:01:36;;;;;;;;;;;26.00;66.90;;;;;;5117332;28;20247;-73
2022/08/16 06:04:02;;;;;;;;;;;26.00;67.40;;;;;;5116650;28;20014;-73
2022/08/16 06:06:27;;;;;;;;;;;25.90;67.80;;;;;;5117138;28;19926;-73
2022/08/16 06:08:53;;;;;;;;;;;25.90;68.00;;;;;;5117090;28;19954;-73
2022/08/16 06:11:18;;;;;;;;;;;25.90;67.60;;;;;;5115386;28;19962;-75
2022/08/16 06:13:46;;;;;;;;;;;25.90;68.30;;;;;;5115027;28;20361;-73
2022/08/16 06:16:12;;;;;;;;;;;25.80;67.80;;;;;;5116643;28;19933;-73
2022/08/16 06:18:37;;;;;;;;;;;25.80;67.90;;;;;;5116942;28;20384;-72
2022/08/16 06:21:03;;;;;;;;;;;25.80;68.00;;;;;;5116549;28;19911;-73
2022/08/16 06:23:29;;;;;;;;;;;25.80;68.10;;;;;;5115431;28;20002;-79
2022/08/16 06:25:54;;;;;;;;;;;25.80;68.70;;;;;;5114188;28;19908;-77
2022/08/16 06:28:20;;;;;;;;;;;25.80;67.90;;;;;;5115926;28;20357;-77
2022/08/16 06:30:45;;;;;;;;;;;25.80;68.00;;;;;;5115469;28;19916;-77
2022/08/16 06:33:15;;;;;;;;;;;25.80;67.90;;;;;;5115802;28;20014;-84
2022/08/16 06:35:40;;;;;;;;;;;25.80;68.50;;;;;;5111840;28;19923;-77
2022/08/16 06:38:06;;;;;;;;;;;25.80;68.00;;;;;;5114841;28;19915;-73
2022/08/16 06:40:32;;;;;;;;;;;25.70;68.70;;;;;;5114732;28;19911;-83
2022/08/16 06:42:58;;;;;;;;;;;25.80;67.90;;;;;;5113597;28;20392;-77
2022/08/16 06:45:24;;;;;;;;;;;25.20;67.60;;;;;;5115156;28;19935;-78
2022/08/16 06:47:49;;;;;;;;;;;25.70;67.90;;;;;;5115166;28;19912;-76
2022/08/16 06:50:15;;;;;;;;;;;25.70;68.10;;;;;;5115273;28;19908;-73
2022/08/16 06:52:42;;;;;;;;;;;25.80;68.10;;;;;;5114785;28;19916;-75
2022/08/16 06:55:09;;;;;;;;;;;25.80;67.90;;;;;;5114600;28;20308;-80
2022/08/16 06:57:34;;;;;;;;;;;25.80;67.90;;;;;;5114609;28;19926;-75
2022/08/16 07:00:00;;;;;;;;;;;25.80;67.90;;;;;;5114534;28;19908;-74
2022/08/16 07:02:25;;;;;;;;;;;25.90;67.70;;;;;;5113377;27;19941;-72
2022/08/16 07:04:51;;;;;;;;;;;25.90;68.10;;;;;;5114585;28;19980;-72
2022/08/16 07:07:19;;;;;;;;;;;25.90;68.10;;;;;;5115230;28;19968;-74
2022/08/16 07:09:46;;;;;;;;;;;25.90;68.00;;;;;;5115376;28;20384;-75
2022/08/16 07:12:12;;;;;;;;;;;26.00;68.00;;;;;;5116117;28;20395;-78
2022/08/16 07:14:38;;;;;;;;;;;26.00;68.30;;;;;;5115896;28;20018;-74
2022/08/16 07:17:04;;;;;;;;;;;26.00;68.60;;;;;;5114824;28;19915;-75
2022/08/16 07:19:31;;;;;;;;;;;25.90;68.40;;;;;;5113621;28;19956;-75
2022/08/16 07:21:56;;;;;;;;;;;25.90;68.10;;;;;;5116025;28;19908;-74
2022/08/16 07:24:22;;;;;;;;;;;25.90;68.40;;;;;;5114601;28;20286;-75
2022/08/16 07:26:47;;;;;;;;;;;25.90;70.40;;;;;;5116089;28;20276;-74
2022/08/16 07:29:13;;;;;;;;;;;25.90;68.90;;;;;;5115998;28;20358;-74
2022/08/16 07:31:38;;;;;;;;;;;25.90;69.20;;;;;;5114519;28;20006;-75
2022/08/16 07:34:04;;;;;;;;;;;25.80;68.80;;;;;;5115992;28;19998;-74
2022/08/16 07:36:29;;;;;;;;;;;25.90;69.10;;;;;;5115862;28;19962;-74
2022/08/16 07:38:55;;;;;;;;;;;25.90;69.60;;;;;;5116079;28;19977;-71
2022/08/16 07:41:20;;;;;;;;;;;25.90;68.90;;;;;;5115466;28;19915;-74
2022/08/16 07:43:46;;;;;;;;;;;25.90;69.10;;;;;;5115610;28;19908;-74
2022/08/16 07:46:12;;;;;;;;;;;25.90;69.60;;;;;;5115504;28;19911;-74
2022/08/16 07:48:37;;;;;;;;;;;25.80;70.10;;;;;;5115400;28;19908;-74
2022/08/16 07:51:03;;;;;;;;;;;25.80;70.00;;;;;;5115760;28;19907;-74
2022/08/16 07:53:29;;;;;;;;;;;25.80;70.80;;;;;;5115147;28;19929;-74
2022/08/16 07:55:56;;;;;;;;;;;25.70;70.70;;;;;;5115604;28;20262;-74
2022/08/16 07:58:22;;;;;;;;;;;25.70;70.30;;;;;;5115359;28;19912;-74
2022/08/16 08:00:47;;;;;;;;;;;25.70;70.30;;;;;;5115778;28;19961;-74
2022/08/16 08:03:13;;;;;;;;;;;25.70;71.30;;;;;;5115345;28;19908;-75
2022/08/16 08:05:39;;;;;;;;;;;25.70;71.00;;;;;;5115211;28;19934;-75
2022/08/16 08:08:05;;;;;;;;;;;25.70;70.50;;;;;;5114883;28;19922;-75
2022/08/16 08:10:30;;;;;;;;;;;25.70;70.40;;;;;;5114525;28;20293;-76
2022/08/16 08:12:56;;;;;;;;;;;25.70;70.30;;;;;;5113998;28;19915;-76
2022/08/16 08:15:23;;;;;;;;;;;25.70;69.60;;;;;;5115176;28;20056;-74
2022/08/16 08:17:49;;;;;;;;;;;25.80;70.30;;;;;;5113803;28;19931;-75
2022/08/16 08:20:16;;;;;;;;;;;25.80;70.30;;;;;;5114729;28;20361;-74
2022/08/16 08:22:45;;;;;;;;;;;25.80;70.10;;;;;;5114024;28;19918;-75
2022/08/16 08:25:10;;;;;;;;;;;25.90;70.80;;;;;;5114790;28;19918;-74
2022/08/16 08:27:36;;;;;;;;;;;26.00;69.80;;;;;;5114833;28;20039;-75
2022/08/16 08:30:03;;;;;;;;;;;26.00;70.40;;;;;;5114696;28;19994;-75
2022/08/16 08:32:28;;;;;;;;;;;26.10;70.30;;;;;;5114530;28;19912;-74
2022/08/16 08:34:54;;;;;;;;;;;26.10;70.00;;;;;;5114847;28;19923;-75
2022/08/16 08:37:21;;;;;;;;;;;26.20;69.80;;;;;;5114751;28;19934;-74
2022/08/16 08:39:47;;;;;;;;;;;26.20;70.50;;;;;;5114596;28;20006;-75
2022/08/16 08:42:14;;;;;;;;;;;26.30;70.10;;;;;;5114875;28;19959;-75
2022/08/16 08:44:40;;;;;;;;;;;26.30;69.30;;;;;;5114662;28;20402;-75
2022/08/16 08:47:06;;;;;;;;;;;26.40;69.50;;;;;;5114505;28;19991;-75
2022/08/16 08:49:32;;;;;;;;;;;26.50;69.30;;;;;;5113292;28;19911;-75
2022/08/16 08:51:58;;;;;;;;;;;26.50;69.30;;;;;;5113215;28;19911;-74
2022/08/16 08:54:24;;;;;;;;;;;26.50;69.00;;;;;;5114679;28;19946;-74
2022/08/16 08:56:51;;;;;;;;;;;26.60;69.00;;;;;;5114528;28;19961;-74
2022/08/16 08:59:16;;;;;;;;;;;26.60;68.80;;;;;;5120146;28;19908;-75
2022/08/16 09:01:42;;;;;;;;;;;26.70;68.60;;;;;;5119890;28;19914;-75
2022/08/16 09:04:08;;;;;;;;;;;26.80;68.70;;;;;;5119817;28;19908;-74
2022/08/16 09:06:33;;;;;;;;;;;26.80;68.40;;;;;;5119871;27;19923;-75
2022/08/16 09:08:59;;;;;;;;;;;26.90;68.30;;;;;;5121688;28;20362;-75
2022/08/16 09:11:25;;;;;;;;;;;27.00;68.30;;;;;;5121053;27;20243;-75
2022/08/16 09:13:50;;;;;;;;;;;27.20;68.20;;;;;;5121166;28;20010;-74
2022/08/16 09:16:16;;;;;;;;;;;27.20;67.80;;;;;;5121269;28;19908;-75
2022/08/16 09:18:42;;;;;;;;;;;27.30;67.70;;;;;;5121197;28;19912;-75
2022/08/16 09:21:08;;;;;;;;;;;27.30;67.60;;;;;;5121862;28;19915;-74
2022/08/16 09:23:34;;;;;;;;;;;27.30;67.50;;;;;;5121531;28;19908;-74
2022/08/16 09:26:00;;;;;;;;;;;27.40;67.40;;;;;;5121092;28;20406;-75
2022/08/16 09:28:27;;;;;;;;;;;27.50;67.20;;;;;;5121232;28;19960;-74
2022/08/16 09:30:53;;;;;;;;;;;27.50;67.30;;;;;;5120960;27;20018;-75
2022/08/16 09:33:19;;;;;;;;;;;27.50;67.20;;;;;;5120710;28;20065;-73
2022/08/16 09:35:45;;;;;;;;;;;27.50;67.10;;;;;;5121813;28;19916;-76
2022/08/16 09:38:12;;;;;;;;;;;27.60;67.10;;;;;;5120862;27;19918;-74
2022/08/16 09:40:42;;;;;;;;;;;27.60;67.00;;;;;;5119427;27;19915;-74
2022/08/16 09:43:08;;;;;;;;;;;27.50;66.90;;;;;;5121027;28;19916;-75
2022/08/16 09:45:37;;;;;;;;;;;27.50;66.80;;;;;;5120698;28;20002;-74
2022/08/16 09:48:04;;;;;;;;;;;27.50;66.80;;;;;;5120589;28;19919;-73
2022/08/16 09:50:31;;;;;;;;;;;27.40;66.80;;;;;;5121166;28;19915;-75
2022/08/16 09:52:56;;;;;;;;;;;27.40;66.90;;;;;;5120645;27;19953;-75
2022/08/16 09:55:22;;;;;;;;;;;27.40;66.90;;;;;;5120945;28;19912;-76
2022/08/16 09:57:47;;;;;;;;;;;27.30;67.00;;;;;;5120848;28;20361;-75
2022/08/16 10:00:13;;;;;;;;;;;27.30;67.60;;;;;;5120863;28;19907;-76
2022/08/16 10:02:41;;;;;;;;;;;27.30;67.10;;;;;;5119159;28;19912;-74
2022/08/16 10:05:07;;;;;;;;;;;27.30;67.20;;;;;;5120633;27;20273;-74
2022/08/16 10:07:33;;;;;;;;;;;27.20;67.10;;;;;;5119302;28;19961;-75
2022/08/16 10:09:58;;;;;;;;;;;27.20;67.00;;;;;;5116742;28;20316;-75
2022/08/16 10:15:10;;;;;;;;;;;27.20;67.00;;;;;;5116467;28;19922;-75
2022/08/16 10:17:40;;;;;;;;;;;27.10;66.90;;;;;;5117358;28;19915;-74
2022/08/16 10:20:06;;;;;;;;;;;27.20;66.90;;;;;;5117438;28;19930;-76
2022/08/16 10:22:31;;;;;;;;;;;27.10;66.80;;;;;;5117311;28;19908;-75
2022/08/16 10:24:57;;;;;;;;;;;27.10;66.80;;;;;;5116989;28;19962;-75
2022/08/16 10:27:22;;;;;;;;;;;27.10;66.80;;;;;;5115591;28;19908;-75
2022/08/16 10:29:48;;;;;;;;;;;27.10;66.80;;;;;;5115914;28;19912;-73
2022/08/16 10:32:13;;;;;;;;;;;27.10;66.70;;;;;;5116854;28;20365;-74
2022/08/16 10:34:39;;;;;;;;;;;27.00;66.50;;;;;;5117643;28;20326;-75
2022/08/16 10:37:04;;;;;;;;;;;27.00;66.50;;;;;;5117089;28;19919;-73
2022/08/16 10:39:30;;;;;;;;;;;27.00;66.60;;;;;;5116821;28;20332;-75
2022/08/16 10:41:55;;;;;;;;;;;26.90;66.60;;;;;;5116630;28;20336;-76
2022/08/16 10:44:21;;;;;;;;;;;26.90;66.50;;;;;;5117180;28;20308;-75
2022/08/16 10:46:47;;;;;;;;;;;26.90;66.50;;;;;;5116000;28;19941;-75
2022/08/16 10:49:13;;;;;;;;;;;26.80;66.50;;;;;;5116743;28;20358;-75
2022/08/16 10:51:39;;;;;;;;;;;26.80;66.50;;;;;;5116469;28;19914;-74
2022/08/16 10:54:04;;;;;;;;;;;26.70;66.50;;;;;;5116757;28;19915;-75
2022/08/16 10:56:30;;;;;;;;;;;26.70;66.80;;;;;;5116309;28;20357;-75
2022/08/16 10:58:57;;;;;;;;;;;26.60;66.70;;;;;;5115113;28;19907;-73
2022/08/16 11:01:24;;;;;;;;;;;26.60;66.80;;;;;;5115545;28;19915;-75
2022/08/16 11:03:51;;;;;;;;;;;26.60;67.00;;;;;;5116649;28;19915;-74
2022/08/16 11:06:16;;;;;;;;;;;26.60;67.10;;;;;;5116878;28;19920;-75
2022/08/16 11:08:42;;;;;;;;;;;26.60;67.40;;;;;;5116181;28;19930;-75
2022/08/16 11:11:08;;;;;;;;;;;26.60;67.40;;;;;;5116122;28;19915;-74
2022/08/16 11:13:33;;;;;;;;;;;26.60;67.50;;;;;;5116051;28;19919;-72
2022/08/16 11:15:59;;;;;;;;;;;26.60;67.50;;;;;;5114933;28;19912;-75
2022/08/16 11:18:28;;;;;;;;;;;26.60;67.50;;;;;;5115485;28;19908;-75
2022/08/16 11:20:54;;;;;;;;;;;26.60;67.90;;;;;;5115677;28;19911;-75
2022/08/16 11:23:20;;;;;;;;;;;26.50;67.90;;;;;;5115972;27;20305;-74
2022/08/16 11:25:46;;;;;;;;;;;26.50;67.80;;;;;;5115644;28;19914;-75
2022/08/16 11:28:13;;;;;;;;;;;26.50;68.20;;;;;;5115799;28;20354;-73
2022/08/16 11:30:39;;;;;;;;;;;26.50;67.90;;;;;;5115904;28;19912;-75
2022/08/16 11:33:05;;;;;;;;;;;26.50;67.90;;;;;;5115835;28;20014;-72
2022/08/16 11:35:31;;;;;;;;;;;26.50;68.10;;;;;;5115937;28;20408;-75
2022/08/16 11:38:01;;;;;;;;;;;26.40;68.30;;;;;;5115746;28;19915;-74
2022/08/16 11:40:30;;;;;;;;;;;26.40;68.30;;;;;;5115526;28;19908;-73
2022/08/16 11:42:56;;;;;;;;;;;26.40;68.20;;;;;;5115513;28;19915;-75
2022/08/16 11:45:22;;;;;;;;;;;26.40;68.30;;;;;;5115678;28;19908;-75
2022/08/16 11:47:48;;;;;;;;;;;26.40;69.10;;;;;;5115627;28;19919;-74
2022/08/16 11:50:13;;;;;;;;;;;26.40;68.40;;;;;;5115981;28;19908;-75
2022/08/16 11:52:39;;;;;;;;;;;26.40;68.70;;;;;;5115458;28;19911;-74
2022/08/16 11:55:06;;;;;;;;;;;26.40;68.50;;;;;;5115480;28;19938;-75
2022/08/16 11:57:32;;;;;;;;;;;26.40;68.80;;;;;;5114124;28;19912;-74
2022/08/16 11:59:58;;;;;;;;;;;26.40;68.80;;;;;;5115499;28;20269;-74
2022/08/16 12:02:24;;;;;;;;;;;26.40;68.80;;;;;;5114041;28;19908;-75
2022/08/16 12:04:49;;;;;;;;;;;26.40;68.60;;;;;;5114030;28;19908;-75
2022/08/16 12:07:15;;;;;;;;;;;26.40;68.80;;;;;;5115159;28;19966;-74
2022/08/16 12:09:40;;;;;;;;;;;26.50;68.70;;;;;;5115074;28;19914;-75
2022/08/16 12:12:06;;;;;;;;;;;26.50;68.90;;;;;;5114906;28;20003;-75
2022/08/16 12:14:32;;;;;;;;;;;26.50;68.90;;;;;;5115440;28;19965;-75
2022/08/16 12:16:59;;;;;;;;;;;26.50;68.90;;;;;;5114850;28;19932;-74
2022/08/16 12:19:24;;;;;;;;;;;26.50;69.00;;;;;;5115247;28;19908;-75
2022/08/16 12:21:50;;;;;;;;;;;26.50;69.90;;;;;;5114801;28;20377;-74
2022/08/16 12:24:16;;;;;;;;;;;26.40;69.10;;;;;;5114680;28;19947;-74
2022/08/16 12:26:42;;;;;;;;;;;26.40;69.00;;;;;;5113571;28;19912;-74
2022/08/16 12:29:07;;;;;;;;;;;26.40;69.20;;;;;;5114604;28;19945;-75
2022/08/16 12:31:33;;;;;;;;;;;26.40;69.30;;;;;;5114695;28;20002;-74
2022/08/16 12:33:58;;;;;;;;;;;26.40;69.30;;;;;;5113947;28;19919;-75
2022/08/16 12:36:25;;;;;;;;;;;26.40;69.30;;;;;;5114664;28;19973;-74
2022/08/16 12:38:51;;;;;;;;;;;26.50;69.10;;;;;;5114469;28;19914;-75
2022/08/16 12:41:16;;;;;;;;;;;26.50;69.20;;;;;;5114980;28;19908;-74
2022/08/16 12:43:42;;;;;;;;;;;26.50;69.30;;;;;;5113465;28;19908;-75
2022/08/16 12:46:09;;;;;;;;;;;26.50;69.30;;;;;;5114651;28;19912;-76
2022/08/16 12:51:21;;;;;;;;;;;26.50;69.10;;;;;;5115597;28;19952;-75
2022/08/16 12:53:50;;;;;;;;;;;26.50;69.20;;;;;;5113873;28;20354;-75
2022/08/16 12:56:16;;;;;;;;;;;26.50;69.10;;;;;;5114448;28;19908;-73
2022/08/16 12:58:42;;;;;;;;;;;26.50;69.20;;;;;;5114563;28;19908;-75
2022/08/16 13:01:08;;;;;;;;;;;26.50;69.10;;;;;;5114519;28;19937;-75
2022/08/16 13:03:33;;;;;;;;;;;26.60;69.20;;;;;;5114447;28;20376;-75
2022/08/16 13:05:59;;;;;;;;;;;26.60;69.20;;;;;;5114218;28;19923;-75
2022/08/16 13:08:25;;;;;;;;;;;26.60;69.20;;;;;;5114716;28;19908;-76
2022/08/16 13:10:53;;;;;;;;;;;26.60;69.20;;;;;;5114748;28;19951;-75
2022/08/16 13:13:23;;;;;;;;;;;26.60;69.20;;;;;;5114315;28;19912;-75
2022/08/16 13:15:52;;;;;;;;;;;26.60;69.20;;;;;;5112896;28;19912;-75
2022/08/16 13:18:18;;;;;;;;;;;26.70;69.30;;;;;;5112806;28;19912;-75
2022/08/16 13:20:43;;;;;;;;;;;26.70;70.00;;;;;;5114690;28;20395;-74
2022/08/16 13:23:10;;;;;;;;;;;26.60;69.50;;;;;;5114635;28;20380;-75
2022/08/16 13:25:36;;;;;;;;;;;26.60;69.60;;;;;;5114255;28;19963;-74
2022/08/16 13:28:02;;;;;;;;;;;26.50;69.20;;;;;;5114338;28;19914;-74
2022/08/16 13:30:29;;;;;;;;;;;26.50;69.30;;;;;;5112685;28;19908;-75
2022/08/16 13:32:55;;;;;;;;;;;26.50;69.60;;;;;;5114071;28;20310;-75
2022/08/16 13:35:21;;;;;;;;;;;26.40;69.50;;;;;;5114277;28;19916;-74
2022/08/16 13:37:47;;;;;;;;;;;26.40;69.50;;;;;;5113028;28;19945;-73
2022/08/16 13:40:13;;;;;;;;;;;26.40;69.60;;;;;;5113805;28;19907;-73
2022/08/16 13:42:39;;;;;;;;;;;26.40;69.60;;;;;;5114288;28;19908;-76
2022/08/16 13:45:06;;;;;;;;;;;26.40;69.90;;;;;;5116232;27;19967;-75
2022/08/16 13:47:32;;;;;;;;;;;26.40;69.60;;;;;;5117786;28;19907;-75
2022/08/16 13:49:57;;;;;;;;;;;26.40;69.50;;;;;;5117659;28;20442;-75
2022/08/16 13:52:23;;;;;;;;;;;26.40;69.70;;;;;;5117926;28;19911;-74
2022/08/16 13:54:49;;;;;;;;;;;26.40;69.70;;;;;;5117673;28;20358;-75
2022/08/16 13:57:15;;;;;;;;;;;26.40;69.70;;;;;;5117763;28;19908;-75
2022/08/16 13:59:42;;;;;;;;;;;26.30;69.50;;;;;;5117576;28;19908;-75
2022/08/16 14:02:08;;;;;;;;;;;26.30;69.50;;;;;;5117378;28;19946;-75
2022/08/16 14:04:36;;;;;;;;;;;26.40;70.20;;;;;;5117460;28;19952;-74
2022/08/16 14:07:03;;;;;;;;;;;26.40;69.60;;;;;;5116070;28;19920;-75
2022/08/16 14:09:29;;;;;;;;;;;26.50;69.90;;;;;;5116194;28;20308;-76
2022/08/16 14:11:55;;;;;;;;;;;26.50;69.40;;;;;;5117127;28;20372;-76
2022/08/16 14:14:24;;;;;;;;;;;26.50;69.40;;;;;;5116715;28;20217;-75